createdAt,value
2018-11-29T00:00:30.017Z,7.20
2018-11-29T00:02:58.187Z,7.30
2018-11-29T00:05:26.335Z,8.50
2018-11-29T00:07:54.551Z,7.43
2018-11-29T00:10:22.688Z,7.77
2018-11-29T00:12:50.839Z,6.97
2018-11-29T00:15:18.989Z,7.70
2018-11-29T00:17:47.153Z,7.93
2018-11-29T00:20:16.309Z,7.93
2018-11-29T00:22:45.310Z,8.10
2018-11-29T00:25:14.414Z,6.90
2018-11-29T00:27:42.762Z,7.23
2018-11-29T00:30:17.026Z,7.37
2018-11-29T00:32:45.168Z,7.43
2018-11-29T00:35:14.202Z,7.77
2018-11-29T00:37:42.422Z,8.77
2018-11-29T00:40:15.573Z,7.17
2018-11-29T00:42:43.781Z,7.90
2018-11-29T00:45:13.001Z,7.60
2018-11-29T00:47:41.349Z,7.17
2018-11-29T00:50:14.429Z,6.80
2018-11-29T00:52:43.484Z,7.97
2018-11-29T00:55:12.766Z,7.70
2018-11-29T00:57:40.997Z,7.20
2018-11-29T01:00:15.209Z,7.00
2018-11-29T01:02:43.445Z,7.80
2018-11-29T01:05:11.705Z,7.77
2018-11-29T01:07:39.904Z,7.83
2018-11-29T01:10:13.154Z,7.27
2018-11-29T01:12:41.449Z,7.63
2018-11-29T01:15:10.993Z,8.63
2018-11-29T01:17:39.166Z,8.90
2018-11-29T01:20:09.250Z,7.53
2018-11-29T01:22:37.420Z,7.50
2018-11-29T01:25:06.632Z,6.87
2018-11-29T01:27:34.789Z,7.60
2018-11-29T01:30:02.970Z,8.17
2018-11-29T01:32:31.112Z,7.17
2018-11-29T01:34:59.258Z,6.50
2018-11-29T01:37:27.497Z,6.70
2018-11-29T01:39:55.637Z,7.97
2018-11-29T01:42:23.840Z,8.17
2018-11-29T01:44:51.996Z,6.97
2018-11-29T01:47:20.158Z,6.73
2018-11-29T01:49:48.326Z,8.30
2018-11-29T01:52:16.501Z,8.10
2018-11-29T01:54:44.781Z,8.00
2018-11-29T01:57:12.996Z,8.63
2018-11-29T01:59:41.144Z,8.03
2018-11-29T02:02:09.301Z,7.43
2018-11-29T02:04:37.456Z,9.33
2018-11-29T02:07:05.597Z,9.13
2018-11-29T02:09:33.788Z,7.90
2018-11-29T02:12:01.941Z,8.43
2018-11-29T02:14:30.095Z,8.20
2018-11-29T02:16:58.242Z,8.93
2018-11-29T02:19:26.424Z,9.27
2018-11-29T02:21:54.573Z,7.60
2018-11-29T02:24:22.721Z,8.80
2018-11-29T02:26:50.876Z,9.17
2018-11-29T02:29:19.043Z,8.50
2018-11-29T02:31:47.175Z,7.67
2018-11-29T02:34:15.317Z,8.40
2018-11-29T02:36:43.542Z,9.57
2018-11-29T02:39:11.694Z,8.67
2018-11-29T02:41:39.859Z,8.80
2018-11-29T02:44:08.007Z,9.53
2018-11-29T02:46:36.156Z,9.30
2018-11-29T02:49:04.324Z,10.00
2018-11-29T02:51:32.483Z,10.37
2018-11-29T02:54:00.669Z,8.97
2018-11-29T02:56:28.881Z,11.33
2018-11-29T02:58:58.824Z,10.07
2018-11-29T03:01:26.995Z,11.37
2018-11-29T03:03:55.301Z,11.17
2018-11-29T03:06:23.913Z,11.73
2018-11-29T03:08:52.096Z,10.63
2018-11-29T03:11:20.277Z,11.27
2018-11-29T03:13:48.427Z,10.40
2018-11-29T03:16:16.553Z,8.97
2018-11-29T03:18:44.701Z,9.80
2018-11-29T03:21:12.873Z,9.43
2018-11-29T03:23:41.052Z,11.27
2018-11-29T03:26:09.203Z,10.57
2018-11-29T03:28:37.348Z,10.10
2018-11-29T03:31:05.590Z,8.50
2018-11-29T03:33:33.770Z,11.77
2018-11-29T03:36:01.918Z,8.93
2018-11-29T03:38:30.082Z,9.70
2018-11-29T03:40:58.262Z,9.70
2018-11-29T03:43:26.421Z,11.33
2018-11-29T03:45:54.609Z,9.00
2018-11-29T03:48:22.810Z,10.03
2018-11-29T03:50:50.940Z,11.73
2018-11-29T03:53:19.224Z,10.50
2018-11-29T03:55:47.414Z,10.67
2018-11-29T03:58:15.571Z,11.23
2018-11-29T04:00:43.717Z,11.93
2018-11-29T04:03:11.861Z,10.70
2018-11-29T04:05:40.081Z,10.77
2018-11-29T04:08:08.278Z,10.77
2018-11-29T04:10:36.504Z,10.53
2018-11-29T04:13:04.778Z,11.53
2018-11-29T04:15:32.962Z,12.13
2018-11-29T04:18:01.146Z,10.90
2018-11-29T04:20:29.320Z,11.63
2018-11-29T04:22:57.485Z,12.23
2018-11-29T04:25:25.664Z,11.77
2018-11-29T04:27:53.837Z,10.40
2018-11-29T04:30:22.062Z,11.47
2018-11-29T04:32:50.308Z,13.87
2018-11-29T04:35:18.522Z,12.23
2018-11-29T04:37:46.661Z,11.67
2018-11-29T04:40:15.732Z,12.07
2018-11-29T04:42:43.969Z,10.87
2018-11-29T04:45:13.090Z,11.67
2018-11-29T04:47:41.244Z,12.43
2018-11-29T04:50:09.509Z,12.03
2018-11-29T04:52:37.666Z,13.37
2018-11-29T04:55:06.601Z,12.97
2018-11-29T04:57:34.757Z,12.00
2018-11-29T05:00:02.951Z,12.13
2018-11-29T05:02:31.094Z,11.23
2018-11-29T05:04:59.405Z,12.80
2018-11-29T05:07:27.541Z,11.67
2018-11-29T05:09:55.684Z,10.73
2018-11-29T05:12:23.906Z,12.43
2018-11-29T05:14:52.055Z,13.07
2018-11-29T05:17:20.235Z,11.93
2018-11-29T05:19:48.398Z,14.13
2018-11-29T05:22:16.536Z,11.90
2018-11-29T05:24:44.742Z,11.80
2018-11-29T05:27:12.888Z,13.17
2018-11-29T05:29:41.029Z,12.03
2018-11-29T05:32:09.178Z,11.63
2018-11-29T05:34:37.358Z,11.67
2018-11-29T05:37:06.474Z,11.80
2018-11-29T05:39:34.696Z,13.23
2018-11-29T05:42:02.862Z,10.63
2018-11-29T05:44:31.117Z,13.83
2018-11-29T05:46:59.267Z,13.83
2018-11-29T05:49:27.418Z,12.00
2018-11-29T05:51:55.580Z,12.27
2018-11-29T05:54:23.737Z,13.83
2018-11-29T05:56:51.894Z,12.33
2018-11-29T05:59:20.133Z,13.83
2018-11-29T06:01:49.198Z,11.80
2018-11-29T06:04:17.384Z,13.10
2018-11-29T06:06:45.572Z,12.00
2018-11-29T06:09:13.709Z,12.27
2018-11-29T06:11:41.852Z,12.20
2018-11-29T06:14:10.041Z,13.10
2018-11-29T06:16:38.552Z,13.10
2018-11-29T06:19:07.998Z,12.57
2018-11-29T06:21:36.148Z,11.47
2018-11-29T06:24:04.774Z,12.80
2018-11-29T06:26:32.945Z,13.73
2018-11-29T06:29:01.220Z,12.90
2018-11-29T06:31:29.365Z,15.13
2018-11-29T06:33:57.602Z,11.53
2018-11-29T06:36:25.742Z,12.97
2018-11-29T06:38:54.633Z,12.63
2018-11-29T06:41:24.564Z,11.90
2018-11-29T06:43:52.785Z,12.43
2018-11-29T06:46:21.129Z,12.13
2018-11-29T06:48:49.348Z,11.63
2018-11-29T06:51:17.502Z,11.87
2018-11-29T06:53:50.981Z,10.87
2018-11-29T06:56:19.252Z,12.83
2018-11-29T06:58:47.428Z,11.43
2018-11-29T07:01:15.564Z,12.87
2018-11-29T07:03:43.802Z,10.60
2018-11-29T07:06:11.967Z,11.50
2018-11-29T07:08:40.159Z,13.00
2018-11-29T07:11:08.370Z,11.17
2018-11-29T07:13:36.530Z,10.97
2018-11-29T07:16:04.702Z,11.27
2018-11-29T07:18:32.869Z,12.00
2018-11-29T07:21:12.375Z,13.00
2018-11-29T07:23:40.560Z,11.20
2018-11-29T07:26:08.729Z,12.83
2018-11-29T07:28:36.945Z,11.33
2018-11-29T07:31:05.215Z,11.67
2018-11-29T07:33:33.391Z,11.53
2018-11-29T07:36:01.520Z,11.93
2018-11-29T07:38:29.724Z,12.37
2018-11-29T07:40:57.953Z,12.07
2018-11-29T07:43:26.146Z,12.13
2018-11-29T07:45:54.349Z,13.10
2018-11-29T07:48:22.525Z,11.83
2018-11-29T07:50:50.704Z,12.83
2018-11-29T07:53:18.860Z,11.93
2018-11-29T07:55:47.180Z,12.83
2018-11-29T07:58:15.361Z,12.23
2018-11-29T08:00:43.579Z,11.30
2018-11-29T08:03:11.738Z,12.47
2018-11-29T08:05:39.949Z,12.50
2018-11-29T08:08:08.119Z,15.37
2018-11-29T08:10:36.325Z,12.10
2018-11-29T08:13:04.765Z,13.60
2018-11-29T08:15:33.162Z,11.10
2018-11-29T08:18:01.350Z,13.50
2018-11-29T08:20:29.621Z,12.83
2018-11-29T08:22:57.864Z,11.93
2018-11-29T08:25:26.128Z,12.47
2018-11-29T08:27:54.320Z,12.13
2018-11-29T08:30:23.113Z,11.70
2018-11-29T08:32:51.260Z,11.97
2018-11-29T08:35:19.570Z,12.43
2018-11-29T08:37:48.017Z,13.73
2018-11-29T08:40:17.438Z,11.73
2018-11-29T08:42:45.707Z,12.40
2018-11-29T08:45:13.996Z,11.53
2018-11-29T08:47:42.205Z,12.10
2018-11-29T08:50:12.596Z,11.53
2018-11-29T08:52:41.687Z,11.40
2018-11-29T08:55:15.209Z,12.80
2018-11-29T08:57:43.437Z,12.33
2018-11-29T09:00:15.857Z,13.07
2018-11-29T09:02:44.153Z,13.27
2018-11-29T09:05:13.022Z,12.80
2018-11-29T09:07:41.620Z,14.17
2018-11-29T09:10:11.096Z,16.67
2018-11-29T09:12:39.325Z,14.27
2018-11-29T09:15:09.358Z,14.07
2018-11-29T09:17:37.561Z,15.10
2018-11-29T09:20:08.372Z,13.80
2018-11-29T09:22:36.658Z,14.30
2018-11-29T09:25:06.488Z,15.63
2018-11-29T09:27:34.759Z,15.43
2018-11-29T09:30:03.037Z,15.10
2018-11-29T09:32:31.229Z,12.63
2018-11-29T09:34:59.440Z,14.20
2018-11-29T09:37:27.684Z,13.90
2018-11-29T09:39:55.848Z,14.70
2018-11-29T09:42:24.127Z,13.93
2018-11-29T09:44:52.296Z,12.90
2018-11-29T09:47:20.444Z,13.40
2018-11-29T09:49:48.634Z,13.97
2018-11-29T09:52:16.804Z,14.23
2018-11-29T09:54:44.957Z,14.90
2018-11-29T09:57:13.144Z,16.40
2018-11-29T09:59:41.328Z,14.67
2018-11-29T10:02:09.538Z,14.23
2018-11-29T10:04:37.697Z,13.53
2018-11-29T10:07:06.198Z,13.10
2018-11-29T10:09:34.401Z,14.50
2018-11-29T10:12:02.546Z,13.43
2018-11-29T10:14:30.728Z,15.37
2018-11-29T10:16:58.950Z,14.60
2018-11-29T10:19:27.157Z,14.27
2018-11-29T10:21:55.341Z,14.57
2018-11-29T10:24:23.505Z,14.80
2018-11-29T10:26:51.684Z,13.70
2018-11-29T10:29:19.873Z,14.30
2018-11-29T10:31:48.025Z,12.43
2018-11-29T10:34:16.185Z,13.10
2018-11-29T10:36:44.363Z,14.17
2018-11-29T10:39:12.543Z,13.27
2018-11-29T10:41:40.710Z,15.43
2018-11-29T10:44:08.848Z,14.37
2018-11-29T10:46:37.049Z,14.73
2018-11-29T10:49:05.214Z,12.33
2018-11-29T10:51:33.356Z,12.37
2018-11-29T10:54:01.567Z,12.50
2018-11-29T10:56:29.725Z,12.93
2018-11-29T10:58:57.889Z,11.93
2018-11-29T11:01:31.349Z,12.63
2018-11-29T11:04:00.348Z,11.67
2018-11-29T11:06:28.533Z,12.93
2018-11-29T11:08:56.733Z,16.37
2018-11-29T11:11:24.909Z,15.27
2018-11-29T11:13:53.049Z,12.77
2018-11-29T11:16:21.226Z,14.23
2018-11-29T11:18:49.380Z,14.17
2018-11-29T11:21:17.578Z,14.17
2018-11-29T11:23:45.742Z,15.63
2018-11-29T11:26:13.936Z,13.73
2018-11-29T11:28:42.081Z,15.60
2018-11-29T11:31:11.118Z,13.67
2018-11-29T11:33:39.340Z,16.00
2018-11-29T11:36:07.525Z,15.40
2018-11-29T11:38:35.679Z,14.70
2018-11-29T11:41:03.861Z,15.63
2018-11-29T11:43:32.034Z,16.57
2018-11-29T11:46:00.235Z,17.40
2018-11-29T11:48:28.377Z,16.33
2018-11-29T11:50:56.541Z,14.90
2018-11-29T11:53:24.717Z,14.93
2018-11-29T11:55:53.707Z,14.30
2018-11-29T11:58:21.056Z,17.40
2018-11-29T12:00:49.250Z,18.40
2018-11-29T12:03:17.588Z,16.57
2018-11-29T12:05:45.806Z,16.70
2018-11-29T12:08:13.936Z,14.07
2018-11-29T12:10:43.191Z,14.40
2018-11-29T12:13:11.397Z,14.10
2018-11-29T12:15:39.625Z,13.50
2018-11-29T12:18:10.189Z,13.37
2018-11-29T12:20:38.410Z,12.93
2018-11-29T12:23:07.541Z,12.97
2018-11-29T12:25:35.693Z,11.20
2018-11-29T12:28:03.917Z,13.23
2018-11-29T12:30:33.809Z,13.60
2018-11-29T12:33:03.110Z,12.83
2018-11-29T12:35:31.429Z,11.70
2018-11-29T12:38:00.171Z,12.90
2018-11-29T12:40:28.665Z,12.90
2018-11-29T12:42:57.090Z,12.27
2018-11-29T12:45:25.380Z,12.83
2018-11-29T12:47:53.574Z,12.23
2018-11-29T12:50:25.105Z,13.90
2018-11-29T12:52:53.593Z,13.03
2018-11-29T12:55:23.006Z,12.63
2018-11-29T12:58:04.714Z,14.17
2018-11-29T13:00:26.373Z,15.33
2018-11-29T13:02:57.834Z,15.63
2018-11-29T13:05:27.813Z,14.37
2018-11-29T13:08:03.371Z,15.93
2018-11-29T13:10:38.248Z,15.50
2018-11-29T13:13:09.118Z,14.60
2018-11-29T13:15:39.964Z,14.10
2018-11-29T13:18:12.064Z,14.80
2018-11-29T13:20:42.128Z,15.53
2018-11-29T13:23:13.699Z,13.43
2018-11-29T13:25:41.969Z,14.83
2018-11-29T13:28:13.969Z,13.43
2018-11-29T13:30:44.633Z,14.77
2018-11-29T13:33:15.141Z,15.07
2018-11-29T13:35:45.666Z,14.23
2018-11-29T13:38:21.109Z,16.97
2018-11-29T13:40:51.060Z,15.50
2018-11-29T13:43:18.408Z,13.37
2018-11-29T13:45:46.876Z,15.13
2018-11-29T13:48:19.949Z,14.67
2018-11-29T13:50:50.271Z,13.67
2018-11-29T13:53:21.465Z,12.67
2018-11-29T13:55:50.278Z,12.50
2018-11-29T13:58:18.603Z,13.63
2018-11-29T14:00:47.115Z,12.23
2018-11-29T14:03:15.762Z,13.73
2018-11-29T14:05:44.029Z,13.93
2018-11-29T14:08:12.363Z,12.20
2018-11-29T14:10:41.837Z,14.10
2018-11-29T14:13:10.152Z,13.47
2018-11-29T14:15:38.585Z,13.67
2018-11-29T14:18:07.278Z,16.17
2018-11-29T14:20:35.654Z,15.13
2018-11-29T14:23:03.576Z,12.80
2018-11-29T14:25:31.733Z,13.00
2018-11-29T14:27:59.873Z,14.53
2018-11-29T14:30:28.874Z,12.40
2018-11-29T14:33:00.117Z,14.83
2018-11-29T14:35:28.257Z,14.37
2018-11-29T14:37:56.436Z,14.67
2018-11-29T14:40:25.773Z,14.23
2018-11-29T14:42:54.076Z,13.90
2018-11-29T14:45:24.373Z,11.37
2018-11-29T14:47:52.570Z,13.50
2018-11-29T14:50:24.056Z,10.53
2018-11-29T14:52:52.228Z,13.00
2018-11-29T14:55:21.705Z,12.73
2018-11-29T14:57:48.593Z,14.50
2018-11-29T15:00:16.765Z,12.03
2018-11-29T15:02:44.925Z,13.70
2018-11-29T15:05:15.672Z,12.43
2018-11-29T15:07:43.825Z,13.37
2018-11-29T15:10:18.442Z,13.67
2018-11-29T15:12:46.643Z,12.33
2018-11-29T15:15:14.852Z,12.13
2018-11-29T15:17:43.902Z,12.60
2018-11-29T15:20:16.654Z,11.70
2018-11-29T15:22:44.804Z,12.53
2018-11-29T15:25:12.965Z,11.87
2018-11-29T15:27:41.109Z,10.63
2018-11-29T15:30:16.832Z,11.87
2018-11-29T15:32:45.144Z,12.97
2018-11-29T15:35:13.325Z,13.90
2018-11-29T15:37:41.473Z,11.07
2018-11-29T15:40:12.051Z,10.27
2018-11-29T15:42:40.661Z,11.97
2018-11-29T15:45:11.213Z,12.20
2018-11-29T15:47:39.385Z,12.17
2018-11-29T15:50:10.961Z,11.20
2018-11-29T15:52:39.149Z,10.63
2018-11-29T15:55:10.303Z,10.53
2018-11-29T15:57:38.513Z,9.83
2018-11-29T16:00:37.834Z,9.67
2018-11-29T16:03:07.521Z,9.23
2018-11-29T16:05:35.785Z,9.50
2018-11-29T16:08:03.929Z,8.57
2018-11-29T16:10:32.078Z,9.70
2018-11-29T16:13:00.224Z,9.67
2018-11-29T16:15:28.415Z,9.10
2018-11-29T16:17:56.625Z,10.47
2018-11-29T16:20:26.951Z,9.60
2018-11-29T16:22:55.164Z,11.00
2018-11-29T16:25:23.337Z,9.27
2018-11-29T16:27:51.498Z,8.93
2018-11-29T16:30:32.693Z,9.03
2018-11-29T16:33:04.596Z,10.13
2018-11-29T16:35:32.760Z,9.50
2018-11-29T16:38:00.905Z,8.40
2018-11-29T16:40:29.052Z,8.73
2018-11-29T16:42:57.204Z,9.03
2018-11-29T16:45:25.344Z,9.57
2018-11-29T16:47:53.506Z,9.77
2018-11-29T16:50:21.677Z,10.67
2018-11-29T16:52:49.832Z,9.53
2018-11-29T16:55:17.969Z,9.90
2018-11-29T16:57:48.152Z,10.40
2018-11-29T17:00:18.146Z,9.67
2018-11-29T17:02:46.293Z,9.07
2018-11-29T17:05:14.806Z,10.33
2018-11-29T17:07:42.969Z,8.50
2018-11-29T17:10:15.281Z,9.50
2018-11-29T17:12:44.973Z,9.87
2018-11-29T17:15:14.611Z,9.43
2018-11-29T17:17:42.746Z,9.37
2018-11-29T17:20:12.181Z,8.33
2018-11-29T17:22:40.417Z,10.03
2018-11-29T17:25:11.790Z,9.97
2018-11-29T17:27:40.005Z,9.00
2018-11-29T17:30:16.190Z,8.83
2018-11-29T17:32:44.464Z,9.77
2018-11-29T17:35:12.659Z,9.50
2018-11-29T17:37:40.831Z,8.67
2018-11-29T17:40:12.117Z,9.97
2018-11-29T17:42:40.444Z,9.43
2018-11-29T17:45:12.945Z,8.40
2018-11-29T17:47:42.038Z,9.43
2018-11-29T17:50:12.162Z,8.87
2018-11-29T17:52:40.357Z,9.33
2018-11-29T17:55:08.606Z,10.27
2018-11-29T17:57:36.801Z,11.63
2018-11-29T18:00:10.105Z,9.50
2018-11-29T18:02:38.288Z,10.20
2018-11-29T18:05:06.905Z,9.77
2018-11-29T18:07:35.049Z,11.13
2018-11-29T18:10:03.224Z,10.57
2018-11-29T18:12:31.381Z,11.20
2018-11-29T18:14:59.551Z,11.27
2018-11-29T18:17:27.749Z,10.93
2018-11-29T18:19:55.897Z,10.53
2018-11-29T18:22:24.045Z,10.60
2018-11-29T18:24:52.249Z,10.63
2018-11-29T18:27:20.401Z,10.53
2018-11-29T18:29:48.574Z,11.77
2018-11-29T18:32:16.709Z,9.87
2018-11-29T18:34:44.861Z,10.67
2018-11-29T18:37:13.024Z,9.80
2018-11-29T18:39:41.174Z,11.20
2018-11-29T18:42:09.336Z,10.90
2018-11-29T18:44:37.476Z,9.63
2018-11-29T18:47:05.897Z,8.97
2018-11-29T18:49:34.065Z,9.87
2018-11-29T18:52:02.202Z,9.37
2018-11-29T18:54:30.373Z,11.03
2018-11-29T18:56:58.536Z,10.17
2018-11-29T18:59:26.694Z,10.17
2018-11-29T19:01:55.260Z,9.67
2018-11-29T19:04:23.436Z,10.00
2018-11-29T19:06:51.598Z,9.83
2018-11-29T19:09:19.826Z,9.60
2018-11-29T19:11:48.013Z,11.27
2018-11-29T19:14:16.246Z,10.90
2018-11-29T19:16:44.438Z,11.13
2018-11-29T19:19:12.662Z,10.50
2018-11-29T19:21:40.748Z,10.33
2018-11-29T19:24:08.934Z,10.33
2018-11-29T19:26:37.132Z,9.33
2018-11-29T19:29:05.924Z,9.93
2018-11-29T19:31:34.340Z,9.60
2018-11-29T19:34:02.566Z,9.10
2018-11-29T19:36:30.817Z,9.30
2018-11-29T19:38:59.041Z,8.40
2018-11-29T19:41:27.197Z,9.27
2018-11-29T19:43:55.365Z,9.13
2018-11-29T19:46:23.509Z,10.43
2018-11-29T19:48:51.701Z,12.53
2018-11-29T19:51:19.848Z,10.43
2018-11-29T19:53:48.028Z,10.13
2018-11-29T19:56:16.173Z,9.67
2018-11-29T19:58:44.567Z,8.97
2018-11-29T20:01:12.565Z,10.20
2018-11-29T20:03:40.738Z,9.20
2018-11-29T20:06:08.905Z,9.97
2018-11-29T20:08:37.041Z,9.20
2018-11-29T20:11:05.661Z,8.37
2018-11-29T20:13:33.817Z,9.43
2018-11-29T20:16:02.018Z,8.53
2018-11-29T20:18:30.245Z,10.40
2018-11-29T20:20:58.421Z,9.63
2018-11-29T20:23:26.624Z,10.73
2018-11-29T20:25:54.945Z,9.40
2018-11-29T20:28:23.154Z,9.80
2018-11-29T20:30:51.381Z,10.03
2018-11-29T20:33:19.716Z,9.40
2018-11-29T20:35:47.903Z,10.13
2018-11-29T20:38:18.797Z,9.13
2018-11-29T20:40:47.310Z,8.57
2018-11-29T20:43:15.885Z,8.83
2018-11-29T20:45:47.546Z,9.40
2018-11-29T20:48:20.004Z,7.40
2018-11-29T20:50:48.707Z,8.87
2018-11-29T20:53:19.049Z,8.40
2018-11-29T20:55:47.323Z,7.93
2018-11-29T20:58:15.519Z,7.47
2018-11-29T21:00:44.528Z,8.50
2018-11-29T21:03:12.739Z,7.83
2018-11-29T21:05:42.693Z,7.67
2018-11-29T21:08:11.637Z,8.47
2018-11-29T21:10:39.877Z,7.57
2018-11-29T21:13:08.573Z,8.07
2018-11-29T21:15:38.029Z,8.10
2018-11-29T21:18:07.923Z,8.23
2018-11-29T21:20:36.584Z,8.83
2018-11-29T21:23:05.542Z,8.60
2018-11-29T21:25:33.701Z,8.67
2018-11-29T21:28:01.845Z,8.07
2018-11-29T21:30:30.165Z,8.40
2018-11-29T21:32:58.530Z,8.53
2018-11-29T21:35:26.714Z,8.50
2018-11-29T21:37:54.967Z,8.83
2018-11-29T21:40:27.767Z,9.30
2018-11-29T21:42:55.909Z,8.40
2018-11-29T21:45:24.083Z,7.60
2018-11-29T21:47:52.308Z,7.50
2018-11-29T21:50:20.529Z,7.67
2018-11-29T21:52:49.885Z,7.60
2018-11-29T21:55:18.138Z,7.27
2018-11-29T21:57:46.355Z,8.13
2018-11-29T22:00:15.801Z,7.97
2018-11-29T22:02:46.321Z,7.10
2018-11-29T22:05:14.522Z,7.40
2018-11-29T22:07:42.766Z,6.93
2018-11-29T22:10:10.917Z,7.50
2018-11-29T22:12:39.087Z,7.63
2018-11-29T22:15:09.748Z,8.60
2018-11-29T22:17:49.784Z,8.00
2018-11-29T22:20:17.970Z,8.07
2018-11-29T22:22:46.149Z,7.27
2018-11-29T22:25:14.405Z,8.13
2018-11-29T22:27:42.666Z,7.90
2018-11-29T22:30:10.851Z,8.40
2018-11-29T22:32:39.186Z,8.53
2018-11-29T22:35:08.666Z,8.60
2018-11-29T22:37:37.211Z,7.13
2018-11-29T22:40:05.736Z,6.97
2018-11-29T22:42:34.016Z,7.73
2018-11-29T22:45:02.248Z,7.70
2018-11-29T22:47:30.472Z,6.60
2018-11-29T22:49:58.704Z,7.17
2018-11-29T22:52:27.429Z,5.97
2018-11-29T22:54:55.681Z,7.23
2018-11-29T22:57:23.946Z,7.20
2018-11-29T22:59:52.285Z,7.53
2018-11-29T23:02:20.553Z,7.37
2018-11-29T23:04:48.807Z,7.33
2018-11-29T23:07:16.990Z,7.40
2018-11-29T23:09:45.184Z,7.23
2018-11-29T23:12:13.401Z,7.00
2018-11-29T23:14:41.625Z,6.63
2018-11-29T23:17:09.881Z,6.50
2018-11-29T23:19:38.084Z,8.00
2018-11-29T23:22:06.297Z,6.70
2018-11-29T23:24:35.336Z,7.43
2018-11-29T23:27:03.505Z,6.50
2018-11-29T23:29:31.701Z,6.40
2018-11-29T23:32:02.609Z,7.03
2018-11-29T23:34:30.921Z,6.07
2018-11-29T23:36:59.380Z,7.00
2018-11-29T23:39:28.523Z,7.10
2018-11-29T23:41:56.702Z,6.13
2018-11-29T23:44:24.962Z,7.20
2018-11-29T23:46:53.880Z,6.23
2018-11-29T23:49:22.059Z,6.20
2018-11-29T23:51:50.260Z,6.77
2018-11-29T23:54:18.489Z,6.60
2018-11-29T23:56:46.679Z,5.83
2018-11-29T23:59:14.860Z,7.27
